ナイロビ の空港の天気 - METARとTAF

ジョモ・ケニヤッタ国際空港 ( HKJK / NBO ) - ケニア ナイロビ
飛行場実況気象(Metar)
観測時間06/18 02:30 EAT (06/17 23:30 UTC)
風向・風速西南西 2m/s
視程10km以上
天気現象
全天の8割程度の雲 雲底高度 670m
気温16℃
湿度82%
気圧1025hPa
METARHKJK 172330Z 24003KT 9999 BKN022 16/13 Q1025 NOSIG
過去の天気等 Google飛行場航空写真 Wunderground天気予報

過去48時間のMETAR

飛行場予報(TAF)
発表時間: 6/18 02:00 EAT (6/17 23:00 UTC)
予報対象時間: 18日3時 EAT ~ 19日9時 EAT
風向・風速北北西 3m/s
視程10km以上
全天の4割程度の雲 雲底高度 640m
18日3時 EAT ~ 18日9時 EAT に一時的に
風向・風速北東 3m/s
全天の8割程度の雲 雲底高度 580m
10日11時 EAT ~ 18日14時 EAT に徐々に
風向・風速南 5m/s
全天の4割程度の雲 雲底高度 730m
18日15時 EAT ~ 18日21時 EAT に一時的に
天気現象弱いしゅう雨
少しの積乱雲 雲底高度 640m
全天の4割程度の雲 雲底高度 670m
全天の8割程度の雲 雲底高度 2440m
18日23時 EAT ~ 19日2時 EAT に徐々に
風向・風速東 3m/s
全天の4割程度の雲 雲底高度 610m
TAF HKJK 172300Z 1800/1906 34005KT 9999 SCT021
TEMPO 1800/1806 04005KT BKN019
BECMG 1008/1811 17010KT SCT024
TEMPO 1812/1818 -SHRA FEW021CB SCT022 BKN080
BECMG 1820/1823 08005KT SCT020